sensor_id;sensor_type;location;lat;lon;timestamp;P1;durP1;ratioP1;P2;durP2;ratioP2
17592;SDS011;8915;51.760;14.300;2023-10-19T00:00:19;15.90;;;10.23;;
17592;SDS011;8915;51.760;14.300;2023-10-19T00:02:48;21.80;;;11.63;;
17592;SDS011;8915;51.760;14.300;2023-10-19T00:05:16;18.20;;;11.10;;
17592;SDS011;8915;51.760;14.300;2023-10-19T00:07:43;19.43;;;11.07;;
17592;SDS011;8915;51.760;14.300;2023-10-19T00:10:09;20.47;;;12.20;;
17592;SDS011;8915;51.760;14.300;2023-10-19T00:12:35;18.53;;;11.57;;
17592;SDS011;8915;51.760;14.300;2023-10-19T00:15:02;17.70;;;10.70;;
17592;SDS011;8915;51.760;14.300;2023-10-19T00:17:29;18.07;;;10.87;;
17592;SDS011;8915;51.760;14.300;2023-10-19T00:19:59;21.80;;;11.77;;
17592;SDS011;8915;51.760;14.300;2023-10-19T00:22:51;18.70;;;11.67;;
17592;SDS011;8915;51.760;14.300;2023-10-19T00:25:18;18.83;;;11.40;;
17592;SDS011;8915;51.760;14.300;2023-10-19T00:27:48;20.00;;;12.00;;
17592;SDS011;8915;51.760;14.300;2023-10-19T00:30:15;18.37;;;11.70;;
17592;SDS011;8915;51.760;14.300;2023-10-19T00:32:49;19.20;;;11.77;;
17592;SDS011;8915;51.760;14.300;2023-10-19T00:35:19;24.23;;;12.20;;
17592;SDS011;8915;51.760;14.300;2023-10-19T00:38:03;21.57;;;12.17;;
17592;SDS011;8915;51.760;14.300;2023-10-19T00:40:52;19.03;;;11.10;;
17592;SDS011;8915;51.760;14.300;2023-10-19T00:43:27;20.67;;;11.53;;
17592;SDS011;8915;51.760;14.300;2023-10-19T00:45:57;25.23;;;12.70;;
17592;SDS011;8915;51.760;14.300;2023-10-19T00:48:26;19.80;;;11.93;;
17592;SDS011;8915;51.760;14.300;2023-10-19T00:50:54;22.77;;;12.53;;
17592;SDS011;8915;51.760;14.300;2023-10-19T00:53:32;22.90;;;12.33;;
17592;SDS011;8915;51.760;14.300;2023-10-19T00:56:01;20.67;;;11.97;;
17592;SDS011;8915;51.760;14.300;2023-10-19T00:58:30;22.03;;;12.93;;
17592;SDS011;8915;51.760;14.300;2023-10-19T01:01:00;21.10;;;13.30;;
17592;SDS011;8915;51.760;14.300;2023-10-19T01:03:30;20.53;;;12.70;;
17592;SDS011;8915;51.760;14.300;2023-10-19T01:06:02;24.93;;;13.00;;
17592;SDS011;8915;51.760;14.300;2023-10-19T01:08:34;22.60;;;12.43;;
17592;SDS011;8915;51.760;14.300;2023-10-19T01:11:06;21.73;;;12.73;;
17592;SDS011;8915;51.760;14.300;2023-10-19T01:13:35;22.17;;;12.47;;
17592;SDS011;8915;51.760;14.300;2023-10-19T01:16:02;25.77;;;13.63;;
17592;SDS011;8915;51.760;14.300;2023-10-19T01:18:29;23.47;;;12.37;;
17592;SDS011;8915;51.760;14.300;2023-10-19T01:20:57;20.90;;;13.03;;
17592;SDS011;8915;51.760;14.300;2023-10-19T01:23:28;23.60;;;13.20;;
17592;SDS011;8915;51.760;14.300;2023-10-19T01:25:56;21.03;;;12.53;;
17592;SDS011;8915;51.760;14.300;2023-10-19T01:28:31;23.83;;;13.67;;
17592;SDS011;8915;51.760;14.300;2023-10-19T01:31:14;25.67;;;13.83;;
17592;SDS011;8915;51.760;14.300;2023-10-19T01:33:42;20.97;;;13.07;;
17592;SDS011;8915;51.760;14.300;2023-10-19T01:36:09;22.40;;;14.07;;
17592;SDS011;8915;51.760;14.300;2023-10-19T01:38:51;25.87;;;13.53;;
17592;SDS011;8915;51.760;14.300;2023-10-19T01:41:19;23.03;;;13.23;;
17592;SDS011;8915;51.760;14.300;2023-10-19T01:43:46;22.30;;;13.37;;
17592;SDS011;8915;51.760;14.300;2023-10-19T01:46:18;20.70;;;12.80;;
17592;SDS011;8915;51.760;14.300;2023-10-19T01:48:50;23.80;;;13.37;;
17592;SDS011;8915;51.760;14.300;2023-10-19T01:51:20;21.13;;;12.97;;
17592;SDS011;8915;51.760;14.300;2023-10-19T01:53:48;22.90;;;13.50;;
17592;SDS011;8915;51.760;14.300;2023-10-19T01:56:16;24.20;;;14.07;;
17592;SDS011;8915;51.760;14.300;2023-10-19T01:58:43;22.10;;;12.80;;
17592;SDS011;8915;51.760;14.300;2023-10-19T02:01:12;24.23;;;14.07;;
17592;SDS011;8915;51.760;14.300;2023-10-19T02:03:44;22.90;;;13.73;;
17592;SDS011;8915;51.760;14.300;2023-10-19T02:06:12;23.90;;;12.97;;
17592;SDS011;8915;51.760;14.300;2023-10-19T02:08:43;21.63;;;13.23;;
17592;SDS011;8915;51.760;14.300;2023-10-19T02:11:13;26.50;;;13.20;;
17592;SDS011;8915;51.760;14.300;2023-10-19T02:13:44;24.83;;;13.97;;
17592;SDS011;8915;51.760;14.300;2023-10-19T02:16:12;34.47;;;17.67;;
17592;SDS011;8915;51.760;14.300;2023-10-19T02:18:41;28.13;;;16.80;;
17592;SDS011;8915;51.760;14.300;2023-10-19T02:21:07;29.27;;;16.43;;
17592;SDS011;8915;51.760;14.300;2023-10-19T02:23:37;28.83;;;15.90;;
17592;SDS011;8915;51.760;14.300;2023-10-19T02:26:03;26.97;;;16.83;;
17592;SDS011;8915;51.760;14.300;2023-10-19T02:28:30;24.13;;;14.50;;
17592;SDS011;8915;51.760;14.300;2023-10-19T02:30:58;24.60;;;13.73;;
17592;SDS011;8915;51.760;14.300;2023-10-19T02:33:36;19.07;;;12.23;;
17592;SDS011;8915;51.760;14.300;2023-10-19T02:36:02;23.03;;;12.73;;
17592;SDS011;8915;51.760;14.300;2023-10-19T02:38:29;21.87;;;14.00;;
17592;SDS011;8915;51.760;14.300;2023-10-19T02:40:58;22.83;;;14.23;;
17592;SDS011;8915;51.760;14.300;2023-10-19T02:43:24;22.83;;;14.10;;
17592;SDS011;8915;51.760;14.300;2023-10-19T02:45:50;21.57;;;13.03;;
17592;SDS011;8915;51.760;14.300;2023-10-19T02:48:19;23.03;;;14.03;;
17592;SDS011;8915;51.760;14.300;2023-10-19T02:50:45;24.80;;;14.27;;
17592;SDS011;8915;51.760;14.300;2023-10-19T02:53:14;21.30;;;12.80;;
17592;SDS011;8915;51.760;14.300;2023-10-19T02:55:39;22.57;;;13.83;;
17592;SDS011;8915;51.760;14.300;2023-10-19T02:58:06;24.67;;;15.03;;
17592;SDS011;8915;51.760;14.300;2023-10-19T03:00:32;25.80;;;15.93;;
17592;SDS011;8915;51.760;14.300;2023-10-19T03:02:59;24.57;;;13.77;;
17592;SDS011;8915;51.760;14.300;2023-10-19T03:05:26;22.13;;;13.53;;
17592;SDS011;8915;51.760;14.300;2023-10-19T03:07:53;23.17;;;14.03;;
17592;SDS011;8915;51.760;14.300;2023-10-19T03:10:19;24.00;;;13.37;;
17592;SDS011;8915;51.760;14.300;2023-10-19T03:12:59;24.40;;;13.87;;
17592;SDS011;8915;51.760;14.300;2023-10-19T03:15:25;23.67;;;14.97;;
17592;SDS011;8915;51.760;14.300;2023-10-19T03:17:52;22.13;;;13.00;;
17592;SDS011;8915;51.760;14.300;2023-10-19T03:20:17;25.20;;;13.67;;
17592;SDS011;8915;51.760;14.300;2023-10-19T03:22:50;26.57;;;14.17;;
17592;SDS011;8915;51.760;14.300;2023-10-19T03:25:16;27.13;;;13.77;;
17592;SDS011;8915;51.760;14.300;2023-10-19T03:27:56;22.67;;;13.40;;
17592;SDS011;8915;51.760;14.300;2023-10-19T03:30:23;21.63;;;12.73;;
17592;SDS011;8915;51.760;14.300;2023-10-19T03:32:52;20.93;;;12.63;;
17592;SDS011;8915;51.760;14.300;2023-10-19T03:35:18;26.60;;;13.83;;
17592;SDS011;8915;51.760;14.300;2023-10-19T03:37:46;26.80;;;13.27;;
17592;SDS011;8915;51.760;14.300;2023-10-19T03:40:16;23.07;;;13.00;;
17592;SDS011;8915;51.760;14.300;2023-10-19T03:42:51;20.27;;;12.80;;
17592;SDS011;8915;51.760;14.300;2023-10-19T03:45:19;21.63;;;12.77;;
17592;SDS011;8915;51.760;14.300;2023-10-19T03:47:49;23.57;;;13.87;;
17592;SDS011;8915;51.760;14.300;2023-10-19T03:50:15;24.60;;;13.20;;
17592;SDS011;8915;51.760;14.300;2023-10-19T03:52:45;22.00;;;13.23;;
17592;SDS011;8915;51.760;14.300;2023-10-19T03:55:11;22.93;;;13.47;;
17592;SDS011;8915;51.760;14.300;2023-10-19T03:57:42;23.77;;;13.57;;
17592;SDS011;8915;51.760;14.300;2023-10-19T04:00:12;20.93;;;13.27;;
17592;SDS011;8915;51.760;14.300;2023-10-19T04:02:41;20.97;;;12.93;;
17592;SDS011;8915;51.760;14.300;2023-10-19T04:05:07;22.33;;;12.67;;
17592;SDS011;8915;51.760;14.300;2023-10-19T04:07:35;22.40;;;13.47;;
17592;SDS011;8915;51.760;14.300;2023-10-19T04:10:02;22.00;;;12.53;;
17592;SDS011;8915;51.760;14.300;2023-10-19T04:12:55;20.57;;;12.37;;
17592;SDS011;8915;51.760;14.300;2023-10-19T04:15:24;19.83;;;12.50;;
17592;SDS011;8915;51.760;14.300;2023-10-19T04:17:51;23.50;;;12.23;;
17592;SDS011;8915;51.760;14.300;2023-10-19T04:20:20;20.53;;;12.23;;
17592;SDS011;8915;51.760;14.300;2023-10-19T04:22:54;27.57;;;14.33;;
17592;SDS011;8915;51.760;14.300;2023-10-19T04:25:21;20.33;;;13.03;;
17592;SDS011;8915;51.760;14.300;2023-10-19T04:27:51;19.60;;;12.20;;
17592;SDS011;8915;51.760;14.300;2023-10-19T04:30:19;24.60;;;12.40;;
17592;SDS011;8915;51.760;14.300;2023-10-19T04:32:48;24.47;;;13.43;;
17592;SDS011;8915;51.760;14.300;2023-10-19T04:35:15;19.80;;;13.10;;
17592;SDS011;8915;51.760;14.300;2023-10-19T04:37:46;21.00;;;12.77;;
17592;SDS011;8915;51.760;14.300;2023-10-19T04:40:12;20.10;;;11.80;;
17592;SDS011;8915;51.760;14.300;2023-10-19T04:42:39;20.77;;;12.07;;
17592;SDS011;8915;51.760;14.300;2023-10-19T04:45:05;20.93;;;12.00;;
17592;SDS011;8915;51.760;14.300;2023-10-19T04:47:34;21.53;;;12.43;;
17592;SDS011;8915;51.760;14.300;2023-10-19T04:50:01;21.47;;;12.97;;
17592;SDS011;8915;51.760;14.300;2023-10-19T04:52:28;25.07;;;13.47;;
17592;SDS011;8915;51.760;14.300;2023-10-19T04:54:54;20.03;;;13.10;;
17592;SDS011;8915;51.760;14.300;2023-10-19T04:57:20;24.90;;;13.53;;
17592;SDS011;8915;51.760;14.300;2023-10-19T04:59:47;25.73;;;14.47;;
17592;SDS011;8915;51.760;14.300;2023-10-19T05:02:13;26.17;;;13.37;;
17592;SDS011;8915;51.760;14.300;2023-10-19T05:04:41;21.07;;;13.20;;
17592;SDS011;8915;51.760;14.300;2023-10-19T05:07:07;21.07;;;12.30;;
17592;SDS011;8915;51.760;14.300;2023-10-19T05:09:37;20.83;;;12.47;;
17592;SDS011;8915;51.760;14.300;2023-10-19T05:12:04;20.33;;;12.73;;
17592;SDS011;8915;51.760;14.300;2023-10-19T05:14:34;24.40;;;12.87;;
17592;SDS011;8915;51.760;14.300;2023-10-19T05:17:00;20.83;;;12.57;;
17592;SDS011;8915;51.760;14.300;2023-10-19T05:19:29;23.13;;;12.40;;
17592;SDS011;8915;51.760;14.300;2023-10-19T05:21:57;22.03;;;13.07;;
17592;SDS011;8915;51.760;14.300;2023-10-19T05:24:23;22.40;;;12.50;;
17592;SDS011;8915;51.760;14.300;2023-10-19T05:26:51;19.97;;;12.90;;
17592;SDS011;8915;51.760;14.300;2023-10-19T05:29:18;19.87;;;13.03;;
17592;SDS011;8915;51.760;14.300;2023-10-19T05:31:45;21.13;;;13.53;;
17592;SDS011;8915;51.760;14.300;2023-10-19T05:34:11;22.93;;;13.33;;
17592;SDS011;8915;51.760;14.300;2023-10-19T05:36:37;22.80;;;13.17;;
17592;SDS011;8915;51.760;14.300;2023-10-19T05:39:07;21.77;;;13.13;;
17592;SDS011;8915;51.760;14.300;2023-10-19T05:41:34;24.97;;;13.90;;
17592;SDS011;8915;51.760;14.300;2023-10-19T05:44:00;22.63;;;13.27;;
17592;SDS011;8915;51.760;14.300;2023-10-19T05:46:28;23.97;;;14.13;;
17592;SDS011;8915;51.760;14.300;2023-10-19T05:48:56;22.27;;;13.83;;
17592;SDS011;8915;51.760;14.300;2023-10-19T05:51:22;23.70;;;14.17;;
17592;SDS011;8915;51.760;14.300;2023-10-19T05:53:49;26.90;;;16.07;;
17592;SDS011;8915;51.760;14.300;2023-10-19T05:56:17;23.60;;;14.63;;
17592;SDS011;8915;51.760;14.300;2023-10-19T05:58:46;24.07;;;14.37;;
17592;SDS011;8915;51.760;14.300;2023-10-19T06:01:15;23.70;;;14.57;;
17592;SDS011;8915;51.760;14.300;2023-10-19T06:03:42;26.47;;;15.70;;
17592;SDS011;8915;51.760;14.300;2023-10-19T06:06:10;26.77;;;14.80;;
17592;SDS011;8915;51.760;14.300;2023-10-19T06:08:36;23.23;;;15.00;;
17592;SDS011;8915;51.760;14.300;2023-10-19T06:11:02;23.17;;;15.17;;
17592;SDS011;8915;51.760;14.300;2023-10-19T06:13:30;22.10;;;13.87;;
17592;SDS011;8915;51.760;14.300;2023-10-19T06:15:57;25.10;;;14.23;;
17592;SDS011;8915;51.760;14.300;2023-10-19T06:18:23;22.13;;;13.93;;
17592;SDS011;8915;51.760;14.300;2023-10-19T06:20:49;24.50;;;14.63;;
17592;SDS011;8915;51.760;14.300;2023-10-19T06:23:16;23.70;;;15.13;;
17592;SDS011;8915;51.760;14.300;2023-10-19T06:25:43;23.53;;;15.10;;
17592;SDS011;8915;51.760;14.300;2023-10-19T06:28:10;28.70;;;14.83;;
17592;SDS011;8915;51.760;14.300;2023-10-19T06:30:38;23.27;;;15.60;;
17592;SDS011;8915;51.760;14.300;2023-10-19T06:33:05;23.30;;;14.77;;
17592;SDS011;8915;51.760;14.300;2023-10-19T06:35:33;29.97;;;17.20;;
17592;SDS011;8915;51.760;14.300;2023-10-19T06:38:02;25.03;;;16.00;;
17592;SDS011;8915;51.760;14.300;2023-10-19T06:40:30;27.87;;;16.03;;
17592;SDS011;8915;51.760;14.300;2023-10-19T06:42:57;31.97;;;19.67;;
17592;SDS011;8915;51.760;14.300;2023-10-19T06:45:25;23.97;;;15.60;;
17592;SDS011;8915;51.760;14.300;2023-10-19T06:47:53;28.53;;;17.77;;
17592;SDS011;8915;51.760;14.300;2023-10-19T06:50:20;28.43;;;16.50;;
17592;SDS011;8915;51.760;14.300;2023-10-19T06:52:47;32.37;;;17.50;;
17592;SDS011;8915;51.760;14.300;2023-10-19T06:55:15;22.97;;;15.90;;
17592;SDS011;8915;51.760;14.300;2023-10-19T06:57:45;28.00;;;16.20;;
17592;SDS011;8915;51.760;14.300;2023-10-19T07:00:13;25.53;;;15.73;;
17592;SDS011;8915;51.760;14.300;2023-10-19T07:02:41;23.40;;;14.70;;
17592;SDS011;8915;51.760;14.300;2023-10-19T07:05:09;26.70;;;16.70;;
17592;SDS011;8915;51.760;14.300;2023-10-19T07:07:36;25.67;;;16.03;;
17592;SDS011;8915;51.760;14.300;2023-10-19T07:10:05;26.23;;;16.57;;
17592;SDS011;8915;51.760;14.300;2023-10-19T07:12:33;27.60;;;17.47;;
17592;SDS011;8915;51.760;14.300;2023-10-19T07:14:59;31.23;;;19.83;;
17592;SDS011;8915;51.760;14.300;2023-10-19T07:17:26;28.70;;;17.30;;
17592;SDS011;8915;51.760;14.300;2023-10-19T07:19:53;30.13;;;17.63;;
17592;SDS011;8915;51.760;14.300;2023-10-19T07:22:21;25.73;;;17.63;;
17592;SDS011;8915;51.760;14.300;2023-10-19T07:24:47;26.03;;;17.70;;
17592;SDS011;8915;51.760;14.300;2023-10-19T07:27:14;24.43;;;16.40;;
17592;SDS011;8915;51.760;14.300;2023-10-19T07:29:43;26.80;;;16.30;;
17592;SDS011;8915;51.760;14.300;2023-10-19T07:32:09;31.90;;;19.07;;
17592;SDS011;8915;51.760;14.300;2023-10-19T07:34:38;32.33;;;18.57;;
17592;SDS011;8915;51.760;14.300;2023-10-19T07:37:05;29.00;;;16.47;;
17592;SDS011;8915;51.760;14.300;2023-10-19T07:39:33;26.87;;;16.60;;
17592;SDS011;8915;51.760;14.300;2023-10-19T07:42:00;24.77;;;15.83;;
17592;SDS011;8915;51.760;14.300;2023-10-19T07:44:27;22.77;;;15.07;;
17592;SDS011;8915;51.760;14.300;2023-10-19T07:46:55;26.73;;;16.10;;
17592;SDS011;8915;51.760;14.300;2023-10-19T07:49:21;26.03;;;16.03;;
17592;SDS011;8915;51.760;14.300;2023-10-19T07:51:50;24.97;;;16.37;;
17592;SDS011;8915;51.760;14.300;2023-10-19T07:54:16;24.57;;;16.63;;
17592;SDS011;8915;51.760;14.300;2023-10-19T07:56:44;25.00;;;15.53;;
17592;SDS011;8915;51.760;14.300;2023-10-19T07:59:11;24.60;;;16.60;;
17592;SDS011;8915;51.760;14.300;2023-10-19T08:01:38;27.47;;;17.53;;
17592;SDS011;8915;51.760;14.300;2023-10-19T08:04:04;25.43;;;16.20;;
17592;SDS011;8915;51.760;14.300;2023-10-19T08:06:31;25.80;;;18.13;;
17592;SDS011;8915;51.760;14.300;2023-10-19T08:08:57;23.57;;;15.70;;
17592;SDS011;8915;51.760;14.300;2023-10-19T08:11:24;24.63;;;16.03;;
17592;SDS011;8915;51.760;14.300;2023-10-19T08:13:52;28.37;;;16.23;;
17592;SDS011;8915;51.760;14.300;2023-10-19T08:16:20;25.73;;;15.83;;
17592;SDS011;8915;51.760;14.300;2023-10-19T08:18:46;25.33;;;16.50;;
17592;SDS011;8915;51.760;14.300;2023-10-19T08:21:13;28.00;;;16.30;;
17592;SDS011;8915;51.760;14.300;2023-10-19T08:23:40;25.57;;;16.00;;
17592;SDS011;8915;51.760;14.300;2023-10-19T08:26:08;22.57;;;16.40;;
17592;SDS011;8915;51.760;14.300;2023-10-19T08:28:34;27.13;;;17.97;;
17592;SDS011;8915;51.760;14.300;2023-10-19T08:31:03;25.10;;;16.33;;
17592;SDS011;8915;51.760;14.300;2023-10-19T08:33:30;23.87;;;16.80;;
17592;SDS011;8915;51.760;14.300;2023-10-19T08:35:58;25.10;;;16.23;;
17592;SDS011;8915;51.760;14.300;2023-10-19T08:38:25;25.13;;;16.33;;
17592;SDS011;8915;51.760;14.300;2023-10-19T08:40:51;29.13;;;16.57;;
17592;SDS011;8915;51.760;14.300;2023-10-19T08:43:19;29.00;;;18.03;;
17592;SDS011;8915;51.760;14.300;2023-10-19T08:45:46;24.73;;;17.67;;
17592;SDS011;8915;51.760;14.300;2023-10-19T08:48:15;27.27;;;16.70;;
17592;SDS011;8915;51.760;14.300;2023-10-19T08:50:41;26.27;;;18.40;;
17592;SDS011;8915;51.760;14.300;2023-10-19T08:53:10;28.60;;;18.93;;
17592;SDS011;8915;51.760;14.300;2023-10-19T08:55:38;26.83;;;17.37;;
17592;SDS011;8915;51.760;14.300;2023-10-19T08:58:05;30.77;;;18.37;;
17592;SDS011;8915;51.760;14.300;2023-10-19T09:00:42;27.60;;;17.43;;
17592;SDS011;8915;51.760;14.300;2023-10-19T09:03:12;26.57;;;18.03;;
17592;SDS011;8915;51.760;14.300;2023-10-19T09:05:40;28.23;;;17.90;;
17592;SDS011;8915;51.760;14.300;2023-10-19T09:08:07;27.23;;;17.03;;
17592;SDS011;8915;51.760;14.300;2023-10-19T09:10:34;26.03;;;17.17;;
17592;SDS011;8915;51.760;14.300;2023-10-19T09:13:01;29.30;;;18.03;;
17592;SDS011;8915;51.760;14.300;2023-10-19T09:15:30;28.33;;;18.23;;
17592;SDS011;8915;51.760;14.300;2023-10-19T09:17:57;32.40;;;19.80;;
17592;SDS011;8915;51.760;14.300;2023-10-19T09:20:24;28.80;;;18.70;;
17592;SDS011;8915;51.760;14.300;2023-10-19T09:22:54;32.83;;;18.70;;
17592;SDS011;8915;51.760;14.300;2023-10-19T09:25:23;29.67;;;18.93;;
17592;SDS011;8915;51.760;14.300;2023-10-19T09:27:49;30.30;;;18.17;;
17592;SDS011;8915;51.760;14.300;2023-10-19T09:30:17;30.53;;;19.73;;
17592;SDS011;8915;51.760;14.300;2023-10-19T09:32:46;29.73;;;18.93;;
17592;SDS011;8915;51.760;14.300;2023-10-19T09:35:13;30.73;;;19.23;;
17592;SDS011;8915;51.760;14.300;2023-10-19T09:37:41;28.00;;;19.13;;
17592;SDS011;8915;51.760;14.300;2023-10-19T09:40:09;29.53;;;18.97;;
17592;SDS011;8915;51.760;14.300;2023-10-19T09:42:38;25.67;;;18.43;;
17592;SDS011;8915;51.760;14.300;2023-10-19T09:45:11;26.83;;;17.87;;
17592;SDS011;8915;51.760;14.300;2023-10-19T09:47:38;27.70;;;18.90;;
17592;SDS011;8915;51.760;14.300;2023-10-19T09:50:07;29.23;;;19.17;;
17592;SDS011;8915;51.760;14.300;2023-10-19T09:52:36;26.70;;;18.27;;
17592;SDS011;8915;51.760;14.300;2023-10-19T09:55:06;26.57;;;17.63;;
17592;SDS011;8915;51.760;14.300;2023-10-19T09:57:43;30.00;;;18.60;;
17592;SDS011;8915;51.760;14.300;2023-10-19T10:00:14;25.63;;;18.63;;
17592;SDS011;8915;51.760;14.300;2023-10-19T10:02:48;27.00;;;17.33;;
17592;SDS011;8915;51.760;14.300;2023-10-19T10:08:29;25.90;;;16.70;;
17592;SDS011;8915;51.760;14.300;2023-10-19T10:10:56;26.43;;;17.93;;
17592;SDS011;8915;51.760;14.300;2023-10-19T10:13:39;25.57;;;17.03;;
17592;SDS011;8915;51.760;14.300;2023-10-19T10:16:06;24.57;;;16.33;;
17592;SDS011;8915;51.760;14.300;2023-10-19T10:18:34;23.30;;;16.57;;
17592;SDS011;8915;51.760;14.300;2023-10-19T10:21:04;24.47;;;16.93;;
17592;SDS011;8915;51.760;14.300;2023-10-19T10:23:37;26.37;;;16.77;;
17592;SDS011;8915;51.760;14.300;2023-10-19T10:26:07;26.50;;;17.70;;
17592;SDS011;8915;51.760;14.300;2023-10-19T10:28:34;23.40;;;15.40;;
17592;SDS011;8915;51.760;14.300;2023-10-19T10:31:08;21.07;;;15.03;;
17592;SDS011;8915;51.760;14.300;2023-10-19T10:33:42;23.90;;;16.30;;
17592;SDS011;8915;51.760;14.300;2023-10-19T10:36:11;23.67;;;15.60;;
17592;SDS011;8915;51.760;14.300;2023-10-19T10:38:38;24.20;;;15.90;;
17592;SDS011;8915;51.760;14.300;2023-10-19T10:41:05;23.10;;;16.20;;
17592;SDS011;8915;51.760;14.300;2023-10-19T10:43:46;24.93;;;16.80;;
17592;SDS011;8915;51.760;14.300;2023-10-19T10:46:15;22.30;;;16.07;;
17592;SDS011;8915;51.760;14.300;2023-10-19T10:48:42;20.63;;;15.33;;
17592;SDS011;8915;51.760;14.300;2023-10-19T10:51:14;22.93;;;15.77;;
17592;SDS011;8915;51.760;14.300;2023-10-19T10:53:46;22.57;;;14.93;;
17592;SDS011;8915;51.760;14.300;2023-10-19T10:56:13;24.27;;;15.17;;
17592;SDS011;8915;51.760;14.300;2023-10-19T10:58:39;21.10;;;15.37;;
17592;SDS011;8915;51.760;14.300;2023-10-19T11:01:05;20.00;;;14.13;;
17592;SDS011;8915;51.760;14.300;2023-10-19T11:03:33;25.10;;;16.80;;
17592;SDS011;8915;51.760;14.300;2023-10-19T11:06:03;19.47;;;14.20;;
17592;SDS011;8915;51.760;14.300;2023-10-19T11:08:33;18.67;;;14.57;;
17592;SDS011;8915;51.760;14.300;2023-10-19T11:11:04;21.57;;;15.47;;
17592;SDS011;8915;51.760;14.300;2023-10-19T11:13:35;22.67;;;15.33;;
17592;SDS011;8915;51.760;14.300;2023-10-19T11:16:03;23.97;;;15.80;;
17592;SDS011;8915;51.760;14.300;2023-10-19T11:18:32;23.13;;;15.30;;
17592;SDS011;8915;51.760;14.300;2023-10-19T11:21:06;19.93;;;14.27;;
17592;SDS011;8915;51.760;14.300;2023-10-19T11:23:35;20.53;;;14.87;;
17592;SDS011;8915;51.760;14.300;2023-10-19T11:26:02;23.07;;;15.70;;
17592;SDS011;8915;51.760;14.300;2023-10-19T11:28:30;20.57;;;13.90;;
17592;SDS011;8915;51.760;14.300;2023-10-19T11:31:09;21.43;;;14.97;;
17592;SDS011;8915;51.760;14.300;2023-10-19T11:33:38;23.57;;;14.73;;
17592;SDS011;8915;51.760;14.300;2023-10-19T11:36:04;20.77;;;14.17;;
17592;SDS011;8915;51.760;14.300;2023-10-19T11:38:31;20.40;;;14.73;;
17592;SDS011;8915;51.760;14.300;2023-10-19T11:40:58;22.30;;;16.20;;
17592;SDS011;8915;51.760;14.300;2023-10-19T11:43:24;23.43;;;14.13;;
17592;SDS011;8915;51.760;14.300;2023-10-19T11:45:50;21.37;;;14.70;;
17592;SDS011;8915;51.760;14.300;2023-10-19T11:48:16;22.30;;;15.40;;
17592;SDS011;8915;51.760;14.300;2023-10-19T11:50:44;20.50;;;14.73;;
17592;SDS011;8915;51.760;14.300;2023-10-19T11:53:10;20.10;;;15.33;;
17592;SDS011;8915;51.760;14.300;2023-10-19T11:55:37;23.33;;;14.80;;
17592;SDS011;8915;51.760;14.300;2023-10-19T11:58:06;20.53;;;14.67;;
17592;SDS011;8915;51.760;14.300;2023-10-19T12:00:36;19.00;;;14.20;;
17592;SDS011;8915;51.760;14.300;2023-10-19T12:03:03;20.10;;;14.03;;
17592;SDS011;8915;51.760;14.300;2023-10-19T12:05:31;17.20;;;13.33;;
17592;SDS011;8915;51.760;14.300;2023-10-19T12:08:03;19.93;;;14.73;;
17592;SDS011;8915;51.760;14.300;2023-10-19T12:10:31;20.27;;;14.07;;
17592;SDS011;8915;51.760;14.300;2023-10-19T12:13:00;18.70;;;13.63;;
17592;SDS011;8915;51.760;14.300;2023-10-19T12:15:27;18.47;;;13.70;;
17592;SDS011;8915;51.760;14.300;2023-10-19T12:17:55;17.30;;;13.70;;
17592;SDS011;8915;51.760;14.300;2023-10-19T12:20:22;20.37;;;13.50;;
17592;SDS011;8915;51.760;14.300;2023-10-19T12:22:48;19.20;;;13.97;;
17592;SDS011;8915;51.760;14.300;2023-10-19T12:25:18;17.37;;;13.00;;
17592;SDS011;8915;51.760;14.300;2023-10-19T12:27:45;19.33;;;13.77;;
17592;SDS011;8915;51.760;14.300;2023-10-19T12:30:11;19.63;;;14.43;;
17592;SDS011;8915;51.760;14.300;2023-10-19T12:32:45;18.10;;;14.43;;
17592;SDS011;8915;51.760;14.300;2023-10-19T12:35:14;16.97;;;12.73;;
17592;SDS011;8915;51.760;14.300;2023-10-19T12:37:40;18.47;;;13.63;;
17592;SDS011;8915;51.760;14.300;2023-10-19T12:40:11;19.37;;;14.20;;
17592;SDS011;8915;51.760;14.300;2023-10-19T12:42:52;21.43;;;14.67;;
17592;SDS011;8915;51.760;14.300;2023-10-19T12:45:19;29.73;;;17.50;;
17592;SDS011;8915;51.760;14.300;2023-10-19T12:47:46;21.40;;;15.73;;
17592;SDS011;8915;51.760;14.300;2023-10-19T12:50:13;19.67;;;15.30;;
17592;SDS011;8915;51.760;14.300;2023-10-19T12:52:40;26.23;;;16.00;;
17592;SDS011;8915;51.760;14.300;2023-10-19T12:55:07;22.93;;;15.50;;
17592;SDS011;8915;51.760;14.300;2023-10-19T12:57:34;20.73;;;14.80;;
17592;SDS011;8915;51.760;14.300;2023-10-19T13:00:02;23.03;;;15.73;;
17592;SDS011;8915;51.760;14.300;2023-10-19T13:02:48;23.10;;;14.93;;
17592;SDS011;8915;51.760;14.300;2023-10-19T13:05:15;23.60;;;16.23;;
17592;SDS011;8915;51.760;14.300;2023-10-19T13:07:43;23.40;;;15.20;;
17592;SDS011;8915;51.760;14.300;2023-10-19T13:10:09;26.37;;;16.13;;
17592;SDS011;8915;51.760;14.300;2023-10-19T13:12:36;18.80;;;14.30;;
17592;SDS011;8915;51.760;14.300;2023-10-19T13:15:04;39.57;;;24.87;;
17592;SDS011;8915;51.760;14.300;2023-10-19T13:17:37;45.73;;;31.23;;
17592;SDS011;8915;51.760;14.300;2023-10-19T13:20:04;25.10;;;19.10;;
17592;SDS011;8915;51.760;14.300;2023-10-19T13:22:41;23.63;;;14.87;;
17592;SDS011;8915;51.760;14.300;2023-10-19T13:25:07;22.17;;;15.63;;
17592;SDS011;8915;51.760;14.300;2023-10-19T13:27:37;27.73;;;21.03;;
17592;SDS011;8915;51.760;14.300;2023-10-19T13:30:07;24.93;;;18.47;;
17592;SDS011;8915;51.760;14.300;2023-10-19T13:32:36;24.10;;;17.33;;
17592;SDS011;8915;51.760;14.300;2023-10-19T13:35:03;23.60;;;16.20;;
17592;SDS011;8915;51.760;14.300;2023-10-19T13:37:29;26.57;;;17.43;;
17592;SDS011;8915;51.760;14.300;2023-10-19T13:39:56;21.37;;;15.67;;
17592;SDS011;8915;51.760;14.300;2023-10-19T13:42:23;25.23;;;17.63;;
17592;SDS011;8915;51.760;14.300;2023-10-19T13:44:50;27.63;;;19.73;;
17592;SDS011;8915;51.760;14.300;2023-10-19T13:47:17;22.37;;;16.30;;
17592;SDS011;8915;51.760;14.300;2023-10-19T13:49:44;23.07;;;17.93;;
17592;SDS011;8915;51.760;14.300;2023-10-19T13:52:11;21.37;;;15.60;;
17592;SDS011;8915;51.760;14.300;2023-10-19T13:54:40;23.67;;;16.93;;
17592;SDS011;8915;51.760;14.300;2023-10-19T13:57:06;21.57;;;15.43;;
17592;SDS011;8915;51.760;14.300;2023-10-19T13:59:32;19.67;;;14.47;;
17592;SDS011;8915;51.760;14.300;2023-10-19T14:01:59;23.53;;;17.40;;
17592;SDS011;8915;51.760;14.300;2023-10-19T14:04:27;22.10;;;15.50;;
17592;SDS011;8915;51.760;14.300;2023-10-19T14:06:53;20.60;;;15.43;;
17592;SDS011;8915;51.760;14.300;2023-10-19T14:09:20;22.47;;;15.07;;
17592;SDS011;8915;51.760;14.300;2023-10-19T14:11:48;21.10;;;15.70;;
17592;SDS011;8915;51.760;14.300;2023-10-19T14:14:14;24.73;;;17.00;;
17592;SDS011;8915;51.760;14.300;2023-10-19T14:16:41;27.60;;;19.03;;
17592;SDS011;8915;51.760;14.300;2023-10-19T14:19:09;27.80;;;19.07;;
17592;SDS011;8915;51.760;14.300;2023-10-19T14:21:37;29.10;;;19.13;;
17592;SDS011;8915;51.760;14.300;2023-10-19T14:24:05;28.10;;;18.47;;
17592;SDS011;8915;51.760;14.300;2023-10-19T14:26:33;24.33;;;19.20;;
17592;SDS011;8915;51.760;14.300;2023-10-19T14:28:59;27.23;;;20.53;;
17592;SDS011;8915;51.760;14.300;2023-10-19T14:31:26;29.93;;;21.13;;